Date,TemperatureHighF,TemperatureAvgF,TemperatureLowF,DewpointHighF,DewpointAvgF,DewpointLowF,HumidityHigh,HumidityAvg,HumidityLow,PressureMaxIn,PressureMinIn,WindSpeedMaxMPH,WindSpeedAvgMPH,GustSpeedMaxMPH,PrecipitationSumIn
2013-1-1,33,27,13,27,20,7,84,75,64,0.04,0.04,0,0,0,0.00
2013-1-2,28,17,6,19,-2,-63,86,58,2,0.04,0.04,0,0,0,0.00
2013-1-3,24,12,0,12,-12,-74,81,50,1,0.04,0.04,0,0,0,0.00
2013-1-4,36,24,9,28,18,6,87,78,68,0.04,0.04,0,0,0,0.00
2013-1-5,42,29,21,29,22,16,82,74,58,0.04,0.04,0,0,0,0.00
2013-1-6,41,28,21,33,24,16,91,83,71,0.04,0.04,0,0,0,0.00
2013-1-7,40,26,14,31,21,11,90,82,64,0.04,0.04,0,0,0,0.00
2013-1-8,45,28,14,34,24,10,90,82,65,0.04,0.04,0,0,0,0.00
2013-1-9,43,31,0,35,26,0,90,84,71,0.04,0.04,0,0,0,0.00
2013-1-10,45,35,25,33,26,21,85,71,54,0.04,0.04,0,0,0,0.00
2013-1-11,38,30,21,31,26,18,90,85,73,0.04,0.04,0,0,0,0.00
2013-1-12,33,33,33,30,30,30,89,89,89,0.00,40.00,0,0,0,0.00
2013-1-13,33,33,33,30,30,30,89,89,89,0.00,40.00,0,0,0,0.00
2013-1-14,52,36,33,46,32,28,89,84,70,30.31,0.89,7,0,8,0.00
2013-1-15,145,20,0,30,16,0,87,49,69,30.35,30.22,4,1,7,0.00
2013-1-16,145,20,0,27,18,0,91,61,80,30.26,29.83,4,0,7,0.00
2013-1-17,38,30,26,34,26,18,91,84,70,30.11,29.86,8,1,9,0.30
2013-1-18,26,20,13,18,8,3,74,61,47,30.45,30.05,4,0,6,0.00
2013-1-19,43,33,18,31,24,10,82,69,60,30.37,29.91,0,0,0,0.00
2013-1-20,51,37,24,37,26,11,84,66,46,29.96,29.63,16,2,19,4.00
2013-1-21,28,21,0,16,13,0,82,68,52,30.09,29.78,1,0,1,0.00
2013-1-22,52,15,0,16,6,-1,88,58,46,30.09,29.75,0,0,1,0.00
2013-1-23,17,8,0,2,-10,-77,62,17,1,30.14,30.06,0,0,0,0.00
2013-1-24,18,6,-5,0,-16,-62,74,35,3,30.25,30.07,13,2,15,3.00
2013-1-25,23,11,0,9,-9,-75,78,31,1,30.34,30.04,8,2,12,0.00
2013-1-26,24,13,5,12,-13,-75,81,48,1,30.26,29.98,8,2,18,0.00
2013-1-27,29,17,6,13,-8,-73,76,41,1,30.47,30.25,10,2,10,0.00
2013-1-28,30,23,0,26,16,0,91,74,49,30.45,29.99,8,1,8,0.00
2013-1-29,36,31,0,32,28,0,91,87,84,30.18,29.99,6,2,6,0.18
2013-1-30,56,38,0,56,36,0,99,91,90,30.14,29.48,18,4,18,0.04
2013-1-31,59,43,28,58,31,7,99,67,34,29.64,29.05,26,5,26,0.58
2013-2-1,32,25,18,18,4,-5,66,43,26,30.12,29.63,19,2,19,0.00
2013-2-2,31,22,14,14,2,-6,75,43,24,30.26,30.05,13,4,13,0.00
2013-2-3,31,22,14,16,11,8,80,65,48,30.05,29.74,7,1,7,0.04
2013-2-4,30,20,12,14,5,-2,77,55,29,29.95,29.74,14,2,14,0.00
2013-2-5,28,23,19,18,11,4,79,60,52,30.01,29.91,7,2,7,0.00
2013-2-6,38,28,20,25,13,-6,85,58,25,30.32,29.90,13,2,13,0.04
2013-2-7,32,23,12,8,0,-6,64,40,24,30.52,30.32,9,2,9,0.00
2013-2-8,31,25,18,28,19,-1,91,78,36,30.43,29.60,26,8,26,0.00
2013-2-9,25,18,12,22,12,-1,87,76,55,30.23,29.63,21,6,21,0.00
2013-2-10,40,19,0,7,-2,-12,63,44,21,30.44,30.23,12,1,12,0.04
2013-2-11,44,32,12,43,28,1,99,86,59,30.35,29.66,11,2,11,0.19
2013-2-12,43,36,31,38,27,20,99,72,53,29.93,29.67,15,3,15,0.00
2013-2-13,43,35,29,26,21,17,75,59,45,29.90,29.70,10,2,10,0.00
2013-2-14,45,34,24,28,21,15,88,63,34,30.00,29.73,9,1,9,0.00
2013-2-15,53,37,25,34,28,18,96,71,43,30.03,29.93,14,2,14,0.00
2013-2-16,39,32,25,31,24,15,92,73,51,29.97,29.71,11,2,11,0.11
2013-2-17,26,20,12,17,-2,-11,73,39,25,29.79,29.49,20,6,20,0.00
2013-2-18,25,15,10,-2,-7,-11,45,37,24,30.18,29.79,16,4,16,0.00
2013-2-19,47,33,15,42,23,-2,99,68,43,30.19,29.61,11,2,11,0.17
2013-2-20,36,28,22,35,12,5,95,53,38,29.84,29.60,20,4,20,0.00
2013-2-21,31,24,19,12,8,5,65,51,39,30.25,29.82,16,4,16,0.00
2013-2-22,44,30,17,23,16,7,78,57,35,30.38,30.23,11,2,11,0.00
2013-2-23,36,33,31,32,28,21,94,82,67,30.32,29.86,12,4,12,0.08
2013-2-24,40,34,31,38,32,30,99,92,86,29.93,29.73,10,2,10,0.30
2013-2-25,44,34,25,33,28,23,95,80,64,30.26,29.92,8,1,8,0.07
2013-2-26,42,36,31,35,27,21,93,72,51,30.34,30.10,14,3,14,0.00
2013-2-27,42,38,33,41,36,27,99,93,75,30.11,29.59,27,9,27,0.99
2013-2-28,37,37,37,35,35,35,92,92,92,29.61,29.61,5,5,10,0.99
2013-3-1,37,37,37,35,35,35,92,92,92,29.61,29.61,5,5,10,0.99
2013-3-2,37,37,37,35,35,35,92,92,92,29.61,29.61,5,5,10,0.99
2013-3-3,37,37,37,35,35,35,92,92,92,29.61,29.61,5,5,10,0.99
2013-3-4,38,34,28,35,24,16,92,70,47,29.81,29.61,17,5,17,0.02
2013-3-5,47,34,23,26,21,16,81,61,44,30.09,29.80,9,2,9,0.00
2013-3-6,40,35,30,35,29,25,89,81,68,30.06,29.61,22,8,22,0.08
2013-3-7,36,32,29,29,27,24,95,83,65,30.05,29.97,22,6,22,0.08
2013-3-8,36,32,29,32,28,23,95,87,72,30.18,29.93,10,2,10,0.01
2013-3-9,56,39,27,26,20,13,78,52,23,30.35,30.16,9,2,9,0.32
2013-3-10,57,38,19,32,24,16,89,63,32,30.41,30.32,9,2,9,0.00
2013-3-11,53,41,33,41,35,29,97,79,52,30.35,30.15,9,3,9,0.00
2013-3-12,53,48,40,51,46,40,99,96,82,30.16,29.75,15,4,15,0.41
2013-3-13,52,40,29,40,26,16,99,64,31,29.84,29.79,12,2,12,0.00
2013-3-14,36,29,24,24,11,-2,65,49,29,29.87,29.78,19,5,19,0.00
2013-3-15,42,31,20,27,12,-2,80,49,25,29.90,29.69,15,4,15,0.00
2013-3-16,39,32,24,26,11,0,79,45,24,29.90,29.73,11,2,11,0.00
2013-3-17,40,30,22,12,4,-4,61,37,21,30.31,29.89,15,3,15,0.00
2013-3-18,30,22,16,4,-2,-10,48,37,21,30.45,30.30,8,2,8,0.00
2013-3-21,39,30,28,23,17,6,75,61,32,29.67,29.62,9,2,9,0.00
2013-3-22,42,31,20,21,14,6,66,50,37,29.82,29.65,17,3,17,0.00
2013-3-23,44,34,27,24,18,12,75,53,31,29.86,29.75,18,5,18,0.00
2013-3-24,48,37,27,25,19,16,69,51,33,29.89,29.76,14,3,14,0.00
2013-3-25,47,31,28,27,22,20,79,70,44,29.79,29.51,12,2,12,0.00
2013-3-26,48,39,28,30,22,14,75,54,32,29.83,29.57,10,2,10,0.00
2013-3-27,57,39,22,28,21,14,79,53,27,29.92,29.82,11,2,11,0.00
2013-3-28,52,41,33,36,29,21,88,65,37,30.08,29.90,10,2,10,0.01
2013-3-29,56,45,29,38,29,22,90,57,30,30.11,30.04,9,3,9,0.00
2013-3-30,59,46,31,33,20,11,77,44,21,30.15,30.07,13,2,13,0.00
2013-3-31,60,43,25,42,25,16,96,55,23,30.16,29.70,17,4,17,0.02
2013-4-1,63,44,31,47,36,14,99,76,43,29.85,29.60,17,4,17,0.27
2013-4-2,43,33,25,19,10,-2,58,41,22,30.01,29.84,20,4,20,0.00
2013-4-3,46,35,27,14,8,0,54,36,21,30.24,29.98,17,6,17,0.00
2013-4-4,58,40,24,26,15,-1,67,41,21,30.35,29.61,12,3,12,0.00
2013-4-5,63,44,33,30,23,11,76,50,19,30.10,29.73,18,3,18,0.00
2013-4-6,52,38,28,24,10,-1,65,35,21,30.36,29.95,16,3,16,0.00
2013-4-7,58,41,26,40,26,11,90,58,33,30.36,30.05,20,4,20,0.00
2013-4-8,70,52,36,45,38,31,99,66,28,30.12,30.00,10,2,10,0.00
2013-4-9,75,61,47,54,44,41,99,61,34,30.09,29.92,16,4,16,0.00
2013-4-10,62,54,47,55,50,42,99,88,64,30.78,29.88,13,2,13,0.17
2013-4-11,59,50,42,48,41,29,99,75,49,30.16,29.86,8,4,8,0.01
2013-4-12,42,38,36,37,35,29,99,90,60,30.16,29.79,25,6,25,5.23
2013-4-13,57,44,34,41,36,33,99,78,46,29.97,29.74,12,2,12,0.07
2013-4-14,56,42,31,44,30,22,99,66,34,30.26,29.95,14,3,14,0.00
2013-4-15,64,45,29,36,29,23,88,59,30,30.43,30.24,8,2,8,0.00
2013-4-16,70,51,33,53,43,32,99,77,41,30.43,30.14,19,4,19,0.00
2013-4-17,70,58,44,53,38,22,99,55,23,30.39,30.14,10,3,10,0.01
2013-4-18,63,51,34,46,35,26,98,62,30,30.44,30.17,14,4,14,0.00
2013-4-19,74,61,51,65,57,46,99,88,68,30.19,29.72,18,6,18,0.00
2013-4-20,62,51,38,62,40,24,99,69,32,30.31,29.69,13,4,13,0.38
2013-4-21,56,46,30,25,18,12,67,37,22,30.69,30.31,11,4,11,0.00
2013-4-22,58,52,37,33,21,15,78,36,23,30.75,30.58,17,6,17,0.00
2013-4-23,42,39,36,41,36,29,99,91,75,30.59,30.12,16,4,16,0.00
2013-4-24,80,55,40,49,44,38,99,73,27,30.12,29.90,11,4,11,0.00
2013-4-25,66,53,37,51,34,12,99,58,19,30.33,29.90,13,3,13,0.06
2013-4-26,72,52,30,40,30,18,94,53,18,30.47,30.32,12,3,12,0.00
2013-4-27,72,53,33,46,36,25,99,61,21,30.47,30.34,9,2,9,0.00
2013-4-28,77,56,35,46,35,26,99,55,21,30.39,30.28,12,2,12,0.00
2013-4-29,71,55,47,49,35,17,91,53,21,30.33,30.28,12,2,12,0.00
2013-4-30,78,60,48,40,27,12,74,37,13,30.42,30.30,11,2,11,0.00
2013-5-1,80,60,47,47,34,26,85,43,20,30.55,30.41,11,2,11,0.00
2013-5-2,47,45,45,43,42,41,88,87,85,30.53,30.49,0,0,0,0.00
2013-5-6,78,59,43,51,47,41,98,68,33,30.33,30.22,5,2,5,0.00
2013-5-7,82,64,41,59,52,41,99,70,33,30.26,30.17,4,1,4,0.00
2013-5-8,75,62,55,65,60,54,99,91,68,30.24,30.10,13,3,13,0.31
2013-5-9,58,55,53,58,55,52,99,98,97,30.10,30.03,2,0,2,0.00
2013-5-12,51,49,46,36,32,29,58,52,47,29.91,29.83,7,2,7,0.04
2013-5-13,60,48,35,40,32,27,97,59,35,30.10,29.91,11,2,11,0.00
2013-5-14,63,48,35,39,31,25,89,58,30,30.12,30.06,8,1,8,0.00
2013-5-15,68,49,30,56,43,29,99,83,41,30.12,29.75,12,2,12,0.05
2013-5-16,84,65,43,61,42,32,99,56,21,29.90,29.73,10,2,10,0.00
2013-5-17,72,60,47,48,41,32,90,56,32,30.30,29.90,12,2,12,0.00
2013-5-18,77,58,40,53,45,36,99,69,30,30.39,30.28,6,1,6,0.00
2013-5-19,67,55,44,57,52,43,99,90,67,30.43,30.25,4,1,4,0.14
2013-5-20,83,68,54,70,63,54,99,86,63,30.25,30.02,4,1,4,0.01
2013-5-21,91,71,53,73,65,53,99,84,52,30.07,29.92,14,2,14,0.37
2013-5-22,81,64,51,73,62,51,99,93,75,30.09,29.92,13,1,13,0.06
2013-5-23,74,66,63,73,66,62,99,98,91,29.99,29.85,8,1,8,0.39
2013-5-24,69,60,44,68,58,44,99,94,84,29.92,29.72,10,2,10,1.07
2013-5-25,49,44,40,48,44,39,99,98,97,29.91,29.82,11,3,11,0.30
2013-5-26,57,47,39,50,44,39,99,89,67,30.19,29.82,11,2,11,0.06
2013-5-27,71,56,36,52,40,32,99,64,28,30.26,30.17,9,1,9,0.01
2013-5-28,78,59,39,57,48,39,99,73,31,30.31,30.24,5,1,5,0.00
2013-5-29,80,65,56,72,63,56,99,93,74,30.24,30.06,8,1,8,0.48
2013-5-30,88,75,60,76,68,60,99,82,54,30.20,30.13,6,1,6,0.06
2013-5-31,92,78,63,76,67,61,99,74,42,30.21,30.07,100,1,100,0.00
2013-6-1,89,76,60,73,68,60,99,78,54,30.11,29.99,5,1,5,0.00
2013-6-2,87,75,65,74,69,65,99,83,56,30.02,29.86,8,1,8,0.00
2013-6-3,77,67,58,71,64,44,99,90,60,29.95,29.87,5,1,5,0.46
2013-6-4,70,61,49,51,47,38,92,63,46,30.18,29.94,9,2,9,0.00
2013-6-5,74,62,46,58,50,45,99,70,41,30.27,30.17,4,1,4,0.00
2013-6-6,74,61,48,62,54,48,99,81,56,30.25,30.15,8,1,8,0.04
2013-6-7,59,56,52,59,55,52,99,98,97,30.15,29.80,13,3,13,1.54
2013-6-8,75,62,52,68,59,51,99,91,75,30.11,29.67,9,1,9,0.33
2013-6-9,78,66,54,63,58,53,99,79,54,30.27,30.10,5,1,5,0.00
2013-6-10,69,60,10,66,59,0,99,94,65,30.27,29.99,97,2,97,3.13
2013-6-11,75,62,56,70,61,56,99,97,83,30.00,29.63,11,1,11,0.94
2013-6-12,69,61,54,60,56,53,99,84,65,29.92,29.67,11,2,11,0.00
2013-6-13,60,53,48,58,53,48,99,98,95,29.90,29.66,11,2,11,0.66
2013-6-14,70,58,50,59,54,50,99,88,63,29.89,29.64,9,2,9,0.73
2013-6-15,77,64,50,62,52,45,99,71,36,30.06,29.89,8,1,8,0.00
2013-6-16,76,64,48,65,58,48,99,84,60,30.06,29.82,4,1,4,0.00
2013-6-17,83,69,58,70,63,57,99,84,60,29.97,29.90,4,1,4,0.00
2013-6-23,87,74,61,75,68,59,93,80,63,30.26,30.14,4,1,4,0.00
2013-6-24,88,76,66,76,71,66,99,87,64,30.14,30.02,4,1,4,0.22
2013-6-25,87,75,63,76,70,62,99,86,63,30.05,29.87,2,0,2,0.01
2013-6-26,84,74,68,75,71,67,99,90,71,29.92,29.84,4,1,4,0.14
2013-6-27,77,70,66,73,69,66,99,97,86,29.91,29.76,4,1,4,0.01
2013-6-28,79,72,66,78,71,66,99,96,82,29.77,29.58,7,2,7,0.43
2013-6-29,81,72,69,74,70,68,99,92,75,29.83,29.58,7,1,7,0.00
2013-6-30,87,75,69,78,72,69,99,90,69,30.04,29.82,8,1,8,0.05
2013-7-1,77,73,70,77,72,70,99,98,97,30.17,30.03,4,0,4,0.09
2013-7-2,82,74,71,76,73,70,99,95,83,30.28,30.16,5,1,5,0.01
2013-7-3,86,76,70,78,73,69,98,91,75,30.32,30.25,5,1,5,0.00
2013-7-4,88,80,71,78,75,70,99,87,70,30.32,30.22,5,1,5,0.00
2013-7-5,89,81,72,78,75,71,98,84,64,30.28,30.17,6,1,6,0.00
2013-7-6,89,80,72,79,75,71,99,85,66,30.20,30.10,4,1,4,0.00
2013-7-7,91,79,69,79,75,69,99,87,63,30.15,30.01,3,0,3,0.00
2013-7-8,86,78,69,76,73,69,99,85,65,30.17,30.01,4,1,4,0.00
2013-7-9,80,73,68,74,71,68,99,95,78,30.19,30.03,5,1,5,0.00
2013-7-10,83,75,70,78,73,70,99,95,83,30.07,29.81,4,1,4,0.00
2013-7-11,81,74,67,78,71,66,99,94,82,29.95,29.80,3,0,3,0.00
2013-7-12,80,71,65,69,64,53,99,80,62,30.18,29.94,11,2,11,0.00
2013-7-13,77,70,64,72,66,19,92,87,68,30.32,30.17,6,1,6,0.06
2013-7-14,86,77,71,76,71,68,92,82,63,30.33,30.23,4,0,4,0.00
2013-7-15,88,78,68,75,70,66,92,78,58,30.25,30.13,6,1,6,0.00
2013-7-16,88,78,67,72,68,65,92,74,49,30.20,30.14,8,1,8,0.00
2013-7-17,88,79,67,74,70,65,92,76,56,30.21,30.06,4,0,4,0.00
2013-7-18,90,81,71,76,72,67,90,75,53,30.07,29.91,4,0,4,0.00
2013-7-19,91,82,72,78,74,69,92,78,58,29.92,29.74,7,1,7,0.00
2013-7-20,88,80,68,78,72,64,91,79,62,29.83,29.67,6,1,6,0.00
2013-7-21,83,73,64,68,64,60,92,75,52,29.97,29.82,4,0,4,0.00
2013-7-22,76,72,63,69,66,60,92,83,78,29.98,29.94,2,1,2,0.00
2013-7-23,84,76,70,75,70,68,92,83,71,29.96,29.53,8,1,8,0.00
2013-7-24,80,71,64,72,64,56,92,81,60,29.92,29.57,5,1,5,0.01
2013-7-25,64,58,56,57,53,47,92,81,66,30.04,29.91,13,2,13,0.00
2013-7-26,68,62,58,64,59,56,92,90,82,29.99,29.93,5,1,5,0.00
2013-7-27,82,69,57,69,62,55,92,79,54,30.02,29.96,4,0,4,0.00
2013-7-28,80,70,60,69,64,58,92,81,61,29.99,29.92,3,0,3,0.00
2013-7-29,82,72,64,72,66,62,92,81,59,30.00,29.93,4,0,4,0.00
2013-7-30,78,71,60,66,62,56,87,72,53,30.10,29.95,8,1,8,0.00
2013-7-31,79,68,55,63,58,53,92,75,48,30.11,30.01,6,0,6,0.00
2013-8-1,81,66,57,69,61,54,92,87,65,30.02,29.81,5,1,5,0.04
2013-8-2,79,69,63,67,62,60,92,78,57,29.87,29.75,5,1,5,0.00
2013-8-3,77,66,60,64,60,57,92,83,64,29.86,29.77,5,0,5,0.07
2013-8-4,76,63,54,64,57,51,92,81,53,29.89,29.78,7,1,7,0.06
2013-8-5,72,61,51,58,50,43,92,70,39,30.02,29.87,8,1,8,0.00
2013-8-6,78,63,47,59,52,44,92,71,41,30.12,30.01,4,1,4,0.00
2013-8-7,78,66,52,65,57,49,92,75,48,30.14,30.07,7,1,7,0.00
2013-8-8,78,70,64,72,66,59,92,87,78,30.09,29.98,4,1,5,0.00
2013-8-9,74,71,70,72,68,66,92,91,90,30.01,29.74,7,1,7,1.11
2013-8-10,79,69,58,67,60,49,92,74,51,30.02,29.79,10,1,10,0.00
2013-8-11,75,64,49,59,54,47,92,72,47,30.07,29.99,5,1,5,0.00
2013-8-12,78,67,57,66,58,54,92,75,49,30.01,29.90,4,0,4,0.00
2013-8-13,73,66,61,67,62,58,92,88,77,29.91,29.65,5,0,5,0.01
2013-8-14,68,62,52,61,54,50,92,76,58,29.95,29.66,9,1,9,0.00
2013-8-15,69,55,47,59,51,45,92,86,62,30.10,29.95,3,0,3,0.01
2013-8-16,76,64,48,61,54,46,92,72,47,30.14,30.07,4,0,4,0.01
2013-8-17,78,69,61,62,58,56,90,68,51,30.25,30.14,4,0,4,0.01
2013-8-18,78,64,56,65,59,53,92,83,54,30.25,30.06,4,0,4,0.09
2013-8-19,77,67,55,65,60,52,92,79,58,30.07,29.96,4,0,4,0.00
2013-8-20,81,70,57,67,61,55,92,75,52,30.10,29.98,6,1,6,0.00
2013-8-21,83,70,56,67,61,54,92,75,52,30.13,30.02,4,0,4,0.00
2013-8-22,82,71,59,71,65,56,92,83,68,30.03,29.83,6,1,6,0.00
2013-8-23,78,69,58,66,59,52,92,72,43,30.09,29.81,10,1,10,0.00
2013-8-24,76,64,51,56,51,46,91,66,40,30.31,30.09,7,1,7,0.00
2013-8-25,79,64,48,61,52,45,92,68,35,30.33,30.17,4,0,4,0.00
2013-8-26,77,67,61,66,60,55,92,80,67,30.17,29.86,4,0,4,0.00
2013-8-27,82,71,66,71,67,64,92,86,66,29.87,29.78,5,1,5,0.00
2013-8-28,84,71,67,73,67,64,92,88,66,29.89,29.82,8,0,8,0.00
2013-8-29,70,66,60,66,62,57,92,87,79,30.02,29.89,7,2,7,0.00
2013-8-30,80,67,58,69,62,56,92,86,67,29.99,29.81,3,0,3,0.00
2013-8-31,78,71,67,72,68,64,92,90,81,29.82,29.76,5,0,5,0.09
2013-9-1,78,71,66,75,68,64,92,91,86,29.84,29.77,3,0,3,0.47
2013-9-2,75,72,70,73,69,56,92,90,89,29.82,29.67,3,0,3,0.08
2013-9-3,77,68,58,69,64,56,92,86,75,29.81,29.67,4,0,4,0.00
2013-9-4,76,65,55,63,56,53,92,77,53,29.91,29.79,10,1,10,0.00
2013-9-5,71,60,48,64,53,46,92,80,53,30.09,29.85,8,1,8,0.05
2013-9-6,65,53,42,51,44,40,92,75,45,30.19,30.05,5,0,5,0.00
2013-9-7,75,59,43,57,49,40,92,72,46,30.06,29.83,4,0,4,0.00
2013-9-8,72,62,48,62,53,41,92,73,44,30.05,29.74,10,1,10,0.00
2013-9-9,67,55,40,51,46,38,92,72,45,30.18,30.05,4,1,4,0.00
2013-9-10,72,64,54,69,61,49,92,90,85,30.11,29.99,5,0,5,0.12
2013-9-11,89,74,64,79,69,62,92,83,58,30.07,29.96,4,0,4,0.01
2013-9-12,82,73,65,74,68,63,92,85,72,29.96,29.65,6,1,6,0.47
2013-9-13,74,66,57,66,61,52,92,85,66,29.74,29.57,8,1,8,0.11
2013-9-14,63,56,48,54,50,46,92,80,66,30.02,29.73,9,1,9,0.00
2013-9-15,65,55,42,51,47,40,92,77,50,30.12,30.01,4,0,4,0.00
2013-9-16,64,55,45,56,50,38,92,84,69,30.19,29.97,5,1,5,0.04
2013-9-17,60,49,37,44,39,34,92,70,45,30.35,30.18,8,1,8,0.00
2013-9-18,67,52,35,50,43,33,92,74,42,30.27,30.11,5,0,5,0.00
2013-9-19,74,57,41,55,48,39,92,75,48,30.12,30.01,3,0,3,0.00
2013-9-20,76,59,42,59,51,40,92,76,49,30.04,29.96,4,0,4,0.00
2013-9-21,70,62,52,64,58,50,92,86,76,29.98,29.66,10,1,10,0.00
2013-9-22,67,59,46,64,53,42,92,81,62,29.81,29.57,7,1,7,1.09
2013-9-23,60,50,40,48,42,38,92,77,55,29.96,29.80,8,1,8,0.00
2013-9-24,63,50,37,46,42,35,92,75,46,29.96,29.79,6,1,6,0.00
2013-9-25,66,54,39,53,47,37,92,77,53,29.92,29.83,4,1,7,0.00
2013-9-26,61,55,47,50,48,45,91,79,60,30.05,29.91,7,1,7,0.00
2013-9-27,62,54,47,53,50,45,92,84,68,30.21,30.04,4,0,4,0.00
2013-9-28,74,56,42,58,49,39,92,78,48,30.27,30.19,7,0,7,0.00
2013-9-29,71,54,42,57,45,40,92,74,41,30.20,30.05,7,1,7,0.00
2013-9-30,70,54,39,54,46,37,92,75,46,30.05,29.92,6,0,6,0.00
2013-10-1,56,56,56,50,50,50,79,79,79,29.92,29.92,0,0,1,0.00
2013-10-2,72,58,42,54,49,40,92,75,47,29.95,29.85,2,0,2,0.00
2013-10-3,75,62,52,59,53,50,92,76,50,29.90,29.78,2,0,2,0.00
2013-10-4,70,66,56,64,61,54,92,86,77,29.79,29.43,4,1,4,1.09
2013-10-5,64,52,40,58,46,38,92,80,62,29.72,29.51,3,1,3,0.00
2013-10-6,58,49,37,45,42,35,92,78,57,29.82,29.73,7,1,7,0.00
2013-10-7,62,51,40,47,42,37,92,75,47,29.75,29.65,3,1,3,0.00
2013-10-8,65,56,42,52,43,40,91,65,46,30.16,29.69,8,1,8,0.38
2013-10-9,63,49,38,47,40,36,92,75,42,30.24,30.13,11,2,11,0.00
2013-10-10,61,51,41,52,46,39,92,84,69,30.14,29.94,5,1,5,0.00
2013-10-11,70,58,49,56,50,44,92,78,58,29.95,29.89,9,1,9,0.00
2013-10-12,65,55,46,55,49,43,90,81,66,30.16,29.92,14,3,14,0.00
2013-10-13,59,53,47,49,46,43,89,78,66,30.23,30.13,9,2,9,0.00
2013-10-14,67,53,34,48,42,32,92,67,37,30.18,30.04,4,0,4,0.00
2013-10-15,72,57,45,54,47,42,90,72,42,30.06,29.95,5,1,5,0.00
2013-10-16,63,54,45,53,48,42,92,81,56,29.97,29.71,3,0,3,0.00
2013-10-17,69,59,50,60,55,47,92,85,69,29.72,29.52,5,0,5,0.01
2013-10-18,65,57,45,58,48,39,92,73,51,29.73,27.88,11,2,11,0.02
2013-10-19,67,51,36,47,40,33,92,68,41,29.77,29.54,6,1,6,0.00
2013-10-20,59,50,36,48,39,31,92,70,38,29.83,29.50,11,1,11,0.17
2013-10-21,64,48,32,45,36,29,92,68,40,29.91,29.78,0,0,0,0.00
2013-10-22,67,50,40,53,43,37,92,79,53,29.79,29.52,1,0,1,0.02
2013-10-23,49,40,32,39,34,28,92,77,52,29.59,29.38,0,0,0,0.00
2013-10-24,51,40,30,35,28,24,89,66,35,29.69,29.46,1,0,1,0.00
2013-10-25,48,37,28,34,26,23,84,66,45,29.94,29.68,1,0,1,0.00
2013-10-26,52,39,25,37,27,20,86,63,36,29.94,29.65,10,0,10,0.00
2013-10-27,52,44,32,37,31,26,83,62,40,29.86,29.59,1,0,1,0.00
2013-10-28,56,40,26,36,28,21,87,64,41,30.11,29.85,1,0,1,0.00
2013-10-29,49,37,28,27,23,21,79,60,34,30.20,30.10,0,0,0,0.00
2013-10-30,54,39,28,42,32,22,89,78,59,30.12,29.97,0,0,0,0.00
2013-10-31,58,47,31,55,43,28,92,88,79,30.01,29.59,4,0,4,0.08
2013-11-1,64,59,50,58,56,43,92,89,78,29.58,29.38,3,-11,3,0.08
2013-11-2,50,50,50,43,43,43,78,78,78,0.00,40.00,0,-999,0,0.00
2013-11-3,45,35,28,41,21,13,88,57,40,30.17,29.52,6,1,6,0.02
2013-11-4,43,31,23,16,11,6,67,45,24,30.44,30.17,10,1,10,0.00
2013-11-5,52,37,23,32,25,14,79,63,39,30.43,30.27,8,1,8,0.00
2013-11-6,62,48,36,45,39,30,86,70,47,30.28,29.84,10,2,10,0.00
2013-11-7,61,50,40,54,46,36,89,86,76,29.85,29.50,9,3,9,0.27
2013-11-8,46,37,29,36,29,19,88,74,40,29.87,29.59,7,1,7,0.01
2013-11-9,45,35,26,27,22,17,75,60,39,29.99,29.77,3,0,3,0.00
2013-11-10,46,38,37,40,33,27,87,80,66,29.78,29.62,1,0,2,0.02
2013-11-11,50,44,36,29,27,22,64,49,40,29.89,29.69,3,0,3,0.00
2013-11-12,47,32,21,34,21,9,82,64,50,29.95,29.67,10,1,10,0.12
2013-11-13,34,26,18,13,8,2,66,49,27,30.05,29.94,9,1,9,0.00
2013-11-14,49,37,26,18,15,10,57,41,26,29.94,29.85,5,1,5,0.00
2013-11-15,60,41,24,27,18,11,69,44,18,29.98,29.90,8,1,8,0.01
2013-11-16,58,42,30,37,28,23,78,60,31,30.09,29.96,0,0,0,0.00
2013-11-17,58,47,30,55,42,24,92,83,73,30.06,29.59,0,0,0,0.01
2013-11-18,64,56,43,57,42,27,92,62,34,29.61,29.35,2,0,2,0.24
2013-11-19,44,37,28,28,19,13,58,47,34,30.05,29.48,2,0,2,0.00
2013-11-20,39,29,19,14,9,4,64,45,25,30.36,30.05,0,0,0,0.00
2013-11-21,47,32,15,29,18,6,73,58,29,30.37,30.14,0,0,0,0.00
2013-11-22,49,43,38,45,39,29,90,84,69,30.15,29.61,0,0,0,0.21
2013-11-23,46,37,26,44,22,7,90,56,36,29.73,29.59,14,2,14,0.05
2013-11-24,26,20,16,12,-2,-10,60,39,26,29.98,29.60,17,4,17,0.05
2013-11-25,31,23,13,13,-2,-13,51,34,23,30.15,29.97,0,0,0,0.00
2013-11-26,39,33,28,36,17,7,92,53,38,30.07,29.72,1,0,1,0.18
2013-11-27,60,46,32,57,43,27,92,90,79,29.72,29.06,20,4,20,2.15
2013-11-28,33,26,18,27,10,-1,79,50,30,30.18,29.30,18,2,18,0.00
2013-11-29,34,25,16,16,9,2,73,52,38,30.45,30.17,8,1,8,0.00
2013-11-30,33,24,9,14,7,0,70,50,32,30.50,30.21,8,0,8,0.00
2013-12-1,38,33,27,35,25,14,89,75,56,30.21,29.77,1,0,1,0.02
2013-12-2,39,34,29,36,31,26,90,87,83,29.77,29.66,4,0,4,0.00
2013-12-3,46,34,27,38,29,21,91,81,62,29.73,29.63,4,0,4,0.01
2013-12-4,47,32,24,33,24,19,84,72,47,29.93,29.73,6,0,6,0.00
2013-12-5,53,46,30,50,42,25,92,88,78,29.93,29.72,9,1,9,0.04
2013-12-6,54,44,32,51,41,29,92,87,77,29.91,29.64,8,0,8,0.41
2013-12-7,35,31,25,30,23,15,88,74,58,30.21,29.83,11,1,11,0.07
2013-12-8,29,25,18,20,12,9,79,60,45,30.32,30.18,6,0,6,0.00
2013-12-9,34,30,24,30,25,10,88,81,50,30.18,29.66,14,2,14,0.05
2013-12-10,33,28,17,29,24,11,88,85,77,29.75,29.54,3,0,3,0.00
2013-12-11,28,21,14,20,13,9,80,71,61,29.97,29.75,0,0,0,0.00
2013-12-12,25,16,6,12,1,-8,72,54,31,30.03,29.80,12,1,12,0.00
2013-12-13,28,20,13,10,4,-2,61,50,41,30.09,29.73,13,3,13,0.00
2013-12-14,21,15,12,16,2,-4,79,56,41,30.29,29.76,20,3,20,0.00
2013-12-15,30,25,18,26,20,12,85,79,74,29.77,29.20,19,3,19,0.00
2013-12-16,30,20,10,17,4,-4,79,52,29,29.93,29.48,14,2,14,0.00
2013-12-17,48,10,-2,7,0,-13,70,65,57,29.97,29.65,12,1,12,0.00
2013-12-18,34,21,12,18,11,4,75,66,48,29.83,29.61,4,0,4,0.05
2013-12-19,42,30,18,22,18,10,75,59,44,29.87,29.73,14,1,14,0.09
2013-12-20,55,39,27,32,26,20,78,61,39,29.86,29.70,8,0,8,0.11
2013-12-21,56,46,37,43,37,28,87,70,53,29.75,29.65,9,0,9,0.00
2013-12-22,65,58,47,58,52,43,90,80,70,29.74,29.55,16,4,16,0.02
2013-12-23,60,45,34,51,41,28,91,86,73,29.86,29.69,14,1,14,0.86
2013-12-24,36,30,20,28,16,2,78,57,38,29.99,29.80,14,2,14,0.00
2013-12-25,24,17,11,2,-3,-7,51,40,26,30.25,29.99,12,2,12,0.00
2013-12-26,31,23,16,24,14,0,78,67,49,30.18,29.85,4,0,4,0.00
2013-12-27,33,23,10,20,12,3,74,63,47,30.03,29.94,8,1,8,0.04
2013-12-28,46,32,21,24,19,13,74,60,39,29.97,29.76,12,1,12,0.00
2013-12-29,39,34,26,36,28,18,90,78,63,29.77,29.17,14,1,14,0.86
2013-12-30,35,27,12,31,16,-2,87,64,39,29.87,29.31,14,2,14,0.00
2013-12-31,25,17,8,10,2,-6,69,53,27,29.92,29.73,14,1,14,0.00
2014-1-1,29,21,12,9,1,-4,64,42,27,30.10,29.91,11,1,11,0.01
2014-1-2,19,14,4,11,4,-6,70,64,59,30.05,29.48,15,3,15,0.00